Time;durP1;ratioP1;P1;durP2;ratioP2;P2;SDS_P1;SDS_P2;PMS_P1;PMS_P2;Temp;Humidity;BMP_temperature;BMP_pressure;BME280_temperature;BME280_humidity;BME280_pressure;Samples;Min_cycle;Max_cycle;Signal;HPM_P1;HPM_P2
2021/01/24 00:00:22;;;;;;;;;;;3.50;85.40;;;;;;5034369;28;19912;-78
2021/01/24 00:02:48;;;;;;;;;;;3.40;85.50;;;;;;5034525;28;19905;-77
2021/01/24 00:05:13;;;;;;;;;;;3.40;85.50;;;;;;5034618;28;19915;-77
2021/01/24 00:07:39;;;;;;;;;;;3.40;85.80;;;;;;5052959;28;19923;-81
2021/01/24 00:10:05;;;;;;;;;;;3.30;85.50;;;;;;5052517;28;19979;-78
2021/01/24 00:12:30;;;;;;;;;;;3.30;85.50;;;;;;5052917;28;20003;-77
2021/01/24 00:14:56;;;;;;;;;;;3.20;85.80;;;;;;5022085;28;19912;-77
2021/01/24 00:17:23;;;;;;;;;;;3.20;85.90;;;;;;5056665;28;20344;-77
2021/01/24 00:19:48;;;;;;;;;;;3.20;86.00;;;;;;5038339;28;19913;-77
2021/01/24 00:22:14;;;;;;;;;;;3.10;86.10;;;;;;5052888;28;19905;-77
2021/01/24 00:24:39;;;;;;;;;;;3.10;86.20;;;;;;5034758;28;19909;-81
2021/01/24 00:27:05;;;;;;;;;;;3.10;86.80;;;;;;5052082;28;19913;-77
2021/01/24 00:29:30;;;;;;;;;;;3.20;86.50;;;;;;5033854;28;20260;-78
2021/01/24 00:31:56;;;;;;;;;;;3.20;86.10;;;;;;5051172;28;20332;-78
2021/01/24 00:34:22;;;;;;;;;;;3.20;86.30;;;;;;5033150;28;19986;-78
2021/01/24 00:36:47;;;;;;;;;;;3.20;86.30;;;;;;5033349;28;19909;-78
2021/01/24 00:39:13;;;;;;;;;;;3.10;86.20;;;;;;5033403;28;19944;-77
2021/01/24 00:41:38;;;;;;;;;;;3.10;86.60;;;;;;5051281;28;20007;-78
2021/01/24 00:44:04;;;;;;;;;;;3.00;86.60;;;;;;5032101;28;20478;-78
2021/01/24 00:46:29;;;;;;;;;;;3.00;86.50;;;;;;5033709;28;19909;-78
2021/01/24 00:48:55;;;;;;;;;;;3.00;86.40;;;;;;5050465;28;20284;-78
2021/01/24 00:51:20;;;;;;;;;;;2.90;86.80;;;;;;5033520;28;19913;-78
2021/01/24 00:53:46;;;;;;;;;;;2.90;86.80;;;;;;5032439;28;20702;-80
2021/01/24 00:56:11;;;;;;;;;;;2.90;86.90;;;;;;5052563;28;19909;-78
2021/01/24 00:58:37;;;;;;;;;;;2.90;86.90;;;;;;5054840;28;20383;-79
2021/01/24 01:01:03;;;;;;;;;;;2.90;86.90;;;;;;5020066;28;19917;-79
2021/01/24 01:03:28;;;;;;;;;;;2.90;87.00;;;;;;5037368;28;19931;-79
2021/01/24 01:05:54;;;;;;;;;;;2.90;87.10;;;;;;5036302;28;19919;-79
2021/01/24 01:08:19;;;;;;;;;;;3.00;87.30;;;;;;5037183;28;20375;-80
2021/01/24 01:10:45;;;;;;;;;;;2.90;86.90;;;;;;5055273;28;19913;-81
2021/01/24 01:13:10;;;;;;;;;;;2.80;87.00;;;;;;5021669;28;19908;-80
2021/01/24 01:15:36;;;;;;;;;;;2.80;87.20;;;;;;5038299;28;19913;-80
2021/01/24 01:18:01;;;;;;;;;;;2.70;87.30;;;;;;5036780;28;20364;-80
2021/01/24 01:20:27;;;;;;;;;;;2.70;87.60;;;;;;5038197;28;19912;-80
2021/01/24 01:22:53;;;;;;;;;;;2.70;87.80;;;;;;5020621;28;19909;-80
2021/01/24 01:25:18;;;;;;;;;;;2.70;87.70;;;;;;5054561;28;19928;-79
2021/01/24 01:27:44;;;;;;;;;;;2.70;87.70;;;;;;5053669;28;19927;-80
2021/01/24 01:30:10;;;;;;;;;;;2.70;87.90;;;;;;5015458;28;19909;-79
2021/01/24 01:32:35;;;;;;;;;;;2.60;87.70;;;;;;5032675;28;20293;-79
2021/01/24 01:35:02;;;;;;;;;;;2.60;87.60;;;;;;5015948;28;19905;-79
2021/01/24 01:37:27;;;;;;;;;;;2.60;87.90;;;;;;5040058;28;19908;-79
2021/01/24 01:39:53;;;;;;;;;;;2.50;88.20;;;;;;5018802;28;19924;-82
2021/01/24 01:42:19;;;;;;;;;;;2.50;88.10;;;;;;5036340;28;19959;-80
2021/01/24 01:44:44;;;;;;;;;;;2.50;88.20;;;;;;5053531;28;19915;-80
2021/01/24 01:47:11;;;;;;;;;;;2.40;88.20;;;;;;5036786;28;20023;-81
2021/01/24 01:49:37;;;;;;;;;;;2.40;88.10;;;;;;5045862;28;19916;-82
2021/01/24 01:52:02;;;;;;;;;;;2.30;88.20;;;;;;5055949;28;19909;-82
2021/01/24 01:54:28;;;;;;;;;;;2.30;88.40;;;;;;5038238;28;19909;-82
2021/01/24 01:56:54;;;;;;;;;;;2.30;88.50;;;;;;5021105;28;19947;-82
2021/01/24 01:59:20;;;;;;;;;;;2.20;88.60;;;;;;5035700;28;19971;-83
2021/01/24 02:02:08;;;;;;;;;;;2.20;88.70;;;;;;5020671;28;19909;-81
2021/01/24 02:04:45;;;;;;;;;;;2.30;89.30;;;;;;5045717;28;20369;-83
2021/01/24 02:07:13;;;;;;;;;;;2.30;89.00;;;;;;5053439;28;19916;-83
2021/01/24 02:09:42;;;;;;;;;;;2.40;89.00;;;;;;5053324;28;19913;-82
2021/01/24 02:12:20;;;;;;;;;;;2.40;88.90;;;;;;5035656;28;19958;-82
2021/01/24 02:14:53;;;;;;;;;;;2.40;89.00;;;;;;5053596;28;19912;-82
2021/01/24 02:17:18;;;;;;;;;;;2.40;89.10;;;;;;5035478;28;19909;-82
2021/01/24 02:20:02;;;;;;;;;;;2.50;88.90;;;;;;5053827;28;19963;-82
2021/01/24 02:22:30;;;;;;;;;;;2.50;88.80;;;;;;5053974;28;19927;-83
2021/01/24 02:24:57;;;;;;;;;;;2.60;88.80;;;;;;5035211;28;19905;-81
2021/01/24 02:27:43;;;;;;;;;;;2.60;88.70;;;;;;5053534;28;19913;-83
2021/01/24 02:30:21;;;;;;;;;;;2.70;88.70;;;;;;5052813;28;19904;-83
2021/01/24 02:32:50;;;;;;;;;;;2.70;88.70;;;;;;5032392;28;20284;-82
2021/01/24 02:35:15;;;;;;;;;;;2.80;89.00;;;;;;5031370;28;20133;-82
2021/01/24 02:37:42;;;;;;;;;;;2.80;88.70;;;;;;5031026;28;20610;-83
2021/01/24 02:40:11;;;;;;;;;;;2.80;88.60;;;;;;5033037;28;19917;-82
2021/01/24 02:42:36;;;;;;;;;;;2.80;88.40;;;;;;5016157;28;20391;-81
2021/01/24 02:45:02;;;;;;;;;;;2.80;88.50;;;;;;5031334;28;19956;-80
2021/01/24 02:47:29;;;;;;;;;;;2.80;88.60;;;;;;5033113;28;19917;-81
2021/01/24 02:49:55;;;;;;;;;;;2.80;88.50;;;;;;5031793;28;19908;-81
2021/01/24 02:52:21;;;;;;;;;;;2.80;88.40;;;;;;5031934;28;19943;-80
2021/01/24 02:54:46;;;;;;;;;;;2.70;88.20;;;;;;5033357;28;20357;-79
2021/01/24 02:57:13;;;;;;;;;;;2.70;88.20;;;;;;5013835;28;20007;-80
2021/01/24 02:59:39;;;;;;;;;;;2.70;88.00;;;;;;5032608;28;19909;-81
2021/01/24 03:02:04;;;;;;;;;;;2.60;88.00;;;;;;5032261;28;19935;-80
2021/01/24 03:04:30;;;;;;;;;;;2.60;88.00;;;;;;5033120;28;19905;-81
2021/01/24 03:06:55;;;;;;;;;;;2.70;88.40;;;;;;5030789;28;19928;-80
2021/01/24 03:09:21;;;;;;;;;;;2.80;88.40;;;;;;5030275;28;19909;-79
2021/01/24 03:11:48;;;;;;;;;;;2.80;88.20;;;;;;5014474;28;20004;-79
2021/01/24 03:14:18;;;;;;;;;;;2.80;88.10;;;;;;5030197;28;19905;-80
2021/01/24 03:16:47;;;;;;;;;;;2.80;88.10;;;;;;5032159;28;19959;-78
2021/01/24 03:19:13;;;;;;;;;;;2.80;88.10;;;;;;5031071;28;19999;-78
2021/01/24 03:21:39;;;;;;;;;;;2.80;88.00;;;;;;5032489;28;19959;-78
2021/01/24 03:24:06;;;;;;;;;;;2.90;88.20;;;;;;5030132;28;20250;-78
2021/01/24 03:26:31;;;;;;;;;;;2.90;88.10;;;;;;5030963;28;19911;-78
2021/01/24 03:28:57;;;;;;;;;;;2.90;88.20;;;;;;5032074;28;20420;-76
2021/01/24 03:31:23;;;;;;;;;;;3.00;88.10;;;;;;5030535;28;19917;-78
2021/01/24 03:33:48;;;;;;;;;;;3.10;88.30;;;;;;5032056;28;19956;-77
2021/01/24 03:36:14;;;;;;;;;;;3.10;88.00;;;;;;5029241;28;19975;-77
2021/01/24 03:38:39;;;;;;;;;;;3.10;87.80;;;;;;5032049;28;19959;-77
2021/01/24 03:41:06;;;;;;;;;;;3.10;87.70;;;;;;5029891;28;20028;-81
2021/01/24 03:43:31;;;;;;;;;;;3.10;88.00;;;;;;5030643;28;20361;-77
2021/01/24 03:45:57;;;;;;;;;;;3.20;88.00;;;;;;5030373;28;19959;-77
2021/01/24 03:48:22;;;;;;;;;;;3.20;88.00;;;;;;5013383;28;19943;-77
2021/01/24 03:50:48;;;;;;;;;;;3.10;87.80;;;;;;5030228;28;19949;-77
2021/01/24 03:53:14;;;;;;;;;;;3.20;87.90;;;;;;5029816;28;19959;-78
2021/01/24 03:55:39;;;;;;;;;;;3.20;87.60;;;;;;5031769;28;19916;-77
2021/01/24 03:58:05;;;;;;;;;;;3.20;87.60;;;;;;5030353;28;19913;-82
2021/01/24 04:00:30;;;;;;;;;;;3.20;87.70;;;;;;5029586;28;19917;-77
2021/01/24 04:02:56;;;;;;;;;;;3.20;87.60;;;;;;5030521;28;19948;-77
2021/01/24 04:05:21;;;;;;;;;;;3.20;87.70;;;;;;5030568;28;19906;-76
2021/01/24 04:07:47;;;;;;;;;;;3.20;87.70;;;;;;5031552;28;20008;-76
2021/01/24 04:10:13;;;;;;;;;;;3.30;87.70;;;;;;5029627;28;19936;-76
2021/01/24 04:12:38;;;;;;;;;;;3.20;87.50;;;;;;5030458;28;19935;-76
2021/01/24 04:15:04;;;;;;;;;;;3.20;87.60;;;;;;5030144;28;19939;-76
2021/01/24 04:17:29;;;;;;;;;;;3.20;87.50;;;;;;5030102;28;19912;-75
2021/01/24 04:19:55;;;;;;;;;;;3.20;87.40;;;;;;5030187;28;19979;-76
2021/01/24 04:22:20;;;;;;;;;;;3.20;87.50;;;;;;5031589;28;19944;-75
2021/01/24 04:24:46;;;;;;;;;;;3.10;87.30;;;;;;5030762;28;19915;-77
2021/01/24 04:27:11;;;;;;;;;;;3.10;87.20;;;;;;5029301;28;19995;-83
2021/01/24 04:29:37;;;;;;;;;;;3.10;87.50;;;;;;5032199;28;19944;-76
2021/01/24 04:32:03;;;;;;;;;;;3.10;87.50;;;;;;5014275;28;20353;-77
2021/01/24 04:34:28;;;;;;;;;;;3.20;87.70;;;;;;5032188;28;19905;-77
2021/01/24 04:36:54;;;;;;;;;;;3.20;87.70;;;;;;5031360;28;19917;-77
2021/01/24 04:39:19;;;;;;;;;;;3.20;87.70;;;;;;5031255;28;19999;-77
2021/01/24 04:41:46;;;;;;;;;;;3.20;87.40;;;;;;5015234;28;19964;-77
2021/01/24 04:44:11;;;;;;;;;;;3.10;87.20;;;;;;5032479;28;19905;-81
2021/01/24 04:46:37;;;;;;;;;;;3.10;87.40;;;;;;5030946;28;20226;-77
2021/01/24 04:49:03;;;;;;;;;;;3.10;87.60;;;;;;5032325;28;19905;-77
2021/01/24 04:51:29;;;;;;;;;;;3.10;87.50;;;;;;5030964;28;20250;-76
2021/01/24 04:53:55;;;;;;;;;;;3.10;87.50;;;;;;5030906;28;19954;-76
2021/01/24 04:56:20;;;;;;;;;;;3.10;87.60;;;;;;5030606;28;19955;-77
2021/01/24 04:58:47;;;;;;;;;;;3.10;87.60;;;;;;5014643;28;19983;-76
2021/01/24 05:01:13;;;;;;;;;;;3.10;87.80;;;;;;5031152;28;19916;-77
2021/01/24 05:03:39;;;;;;;;;;;3.10;87.80;;;;;;5030211;28;20004;-77
2021/01/24 05:06:05;;;;;;;;;;;3.10;87.60;;;;;;5030392;28;19986;-77
2021/01/24 05:08:31;;;;;;;;;;;3.20;87.90;;;;;;5031146;28;19921;-77
2021/01/24 05:11:02;;;;;;;;;;;3.20;87.90;;;;;;5030643;28;19913;-78
2021/01/24 05:13:28;;;;;;;;;;;3.20;87.90;;;;;;5030440;28;19939;-77
2021/01/24 05:15:57;;;;;;;;;;;3.20;87.80;;;;;;5032154;28;19917;-77
2021/01/24 05:18:22;;;;;;;;;;;3.20;88.20;;;;;;5030881;28;19956;-78
2021/01/24 05:20:50;;;;;;;;;;;3.20;87.80;;;;;;5032196;28;19909;-78
2021/01/24 05:23:18;;;;;;;;;;;3.20;87.90;;;;;;5031871;28;19968;-78
2021/01/24 05:25:44;;;;;;;;;;;3.20;88.10;;;;;;5030840;28;20365;-79
2021/01/24 05:28:16;;;;;;;;;;;3.20;87.90;;;;;;5030679;28;19979;-79
2021/01/24 05:30:42;;;;;;;;;;;3.20;87.80;;;;;;5031263;28;19913;-78
2021/01/24 05:33:08;;;;;;;;;;;3.20;87.70;;;;;;5049526;28;20357;-79
2021/01/24 05:35:44;;;;;;;;;;;3.20;87.60;;;;;;5032443;28;19908;-79
2021/01/24 05:38:10;;;;;;;;;;;3.10;87.90;;;;;;5033964;28;19944;-79
2021/01/24 05:40:37;;;;;;;;;;;3.20;87.90;;;;;;5033159;28;19955;-78
2021/01/24 05:43:03;;;;;;;;;;;3.30;88.10;;;;;;5054771;28;20357;-77
2021/01/24 05:45:36;;;;;;;;;;;3.20;87.80;;;;;;5020329;28;19910;-77
2021/01/24 05:48:04;;;;;;;;;;;3.20;87.70;;;;;;5055205;28;19912;-78
2021/01/24 05:50:29;;;;;;;;;;;3.20;87.60;;;;;;5036832;28;19904;-78
2021/01/24 05:52:55;;;;;;;;;;;3.20;87.80;;;;;;5054543;28;20371;-76
2021/01/24 05:55:31;;;;;;;;;;;3.20;87.90;;;;;;5036632;28;19969;-82
2021/01/24 05:57:56;;;;;;;;;;;3.30;87.90;;;;;;5037905;28;19978;-77
2021/01/24 06:00:22;;;;;;;;;;;3.30;87.80;;;;;;5059265;28;19905;-80
2021/01/24 06:02:48;;;;;;;;;;;3.20;87.80;;;;;;5058811;28;19996;-78
2021/01/24 06:05:14;;;;;;;;;;;3.30;87.90;;;;;;5018275;28;19917;-79
2021/01/24 06:07:39;;;;;;;;;;;3.30;87.90;;;;;;5036815;28;20272;-78
2021/01/24 06:10:05;;;;;;;;;;;3.30;88.00;;;;;;5055317;28;19982;-76
2021/01/24 06:12:33;;;;;;;;;;;3.40;88.10;;;;;;5036825;28;20250;-79
2021/01/24 06:15:02;;;;;;;;;;;3.40;87.80;;;;;;5037357;28;19905;-80
2021/01/24 06:17:29;;;;;;;;;;;3.30;87.60;;;;;;5017250;28;19915;-79
2021/01/24 06:19:58;;;;;;;;;;;3.30;87.60;;;;;;5025725;28;20360;-78
2021/01/24 06:22:28;;;;;;;;;;;3.30;87.50;;;;;;5055180;28;19913;-79
2021/01/24 06:24:56;;;;;;;;;;;3.30;87.80;;;;;;5037510;28;19905;-78
2021/01/24 06:27:24;;;;;;;;;;;3.30;88.00;;;;;;5037374;28;20367;-78
2021/01/24 06:29:51;;;;;;;;;;;3.40;88.00;;;;;;5036915;28;19970;-76
2021/01/24 06:32:24;;;;;;;;;;;3.40;87.80;;;;;;5033267;28;19916;-77
2021/01/24 06:34:49;;;;;;;;;;;3.30;87.80;;;;;;5033053;28;19912;-77
2021/01/24 06:37:25;;;;;;;;;;;3.30;88.00;;;;;;5034825;28;20348;-77
2021/01/24 06:39:50;;;;;;;;;;;3.30;87.80;;;;;;5016971;28;20012;-77
2021/01/24 06:42:45;;;;;;;;;;;3.40;87.90;;;;;;5032782;28;20377;-77
2021/01/24 06:45:26;;;;;;;;;;;3.40;87.90;;;;;;5034165;28;20668;-77
2021/01/24 06:48:01;;;;;;;;;;;3.40;87.90;;;;;;5032550;28;19987;-77
2021/01/24 06:50:36;;;;;;;;;;;3.40;88.00;;;;;;5032734;28;19908;-78
2021/01/24 06:53:22;;;;;;;;;;;3.40;88.10;;;;;;5032286;28;20220;-77
2021/01/24 06:55:58;;;;;;;;;;;3.40;87.90;;;;;;5032092;28;19935;-77
2021/01/24 06:58:29;;;;;;;;;;;3.40;88.10;;;;;;5034212;28;19979;-77
2021/01/24 07:01:14;;;;;;;;;;;3.50;88.00;;;;;;5032156;28;19912;-78
2021/01/24 07:03:39;;;;;;;;;;;3.40;88.50;;;;;;5033805;28;20312;-77
2021/01/24 07:06:29;;;;;;;;;;;3.40;88.10;;;;;;5034130;28;19905;-77
2021/01/24 07:08:54;;;;;;;;;;;3.40;88.00;;;;;;5032216;28;19925;-77
2021/01/24 07:11:40;;;;;;;;;;;3.40;88.10;;;;;;5032144;28;19913;-76
2021/01/24 07:14:25;;;;;;;;;;;3.40;88.00;;;;;;5033371;28;19905;-77
2021/01/24 07:16:51;;;;;;;;;;;3.40;88.10;;;;;;5033094;28;20690;-77
2021/01/24 07:19:20;;;;;;;;;;;3.40;88.10;;;;;;5032481;28;19909;-77
2021/01/24 07:21:45;;;;;;;;;;;3.30;88.10;;;;;;5015705;28;19964;-77
2021/01/24 07:24:11;;;;;;;;;;;3.30;88.20;;;;;;5032678;28;19956;-76
2021/01/24 07:26:37;;;;;;;;;;;3.30;88.30;;;;;;5031969;28;19928;-79
2021/01/24 07:29:02;;;;;;;;;;;3.40;88.60;;;;;;5031144;28;19921;-77
2021/01/24 07:31:29;;;;;;;;;;;3.40;89.00;;;;;;5035088;28;19916;-78
2021/01/24 07:33:54;;;;;;;;;;;3.50;88.60;;;;;;5029879;28;20449;-78
2021/01/24 07:36:20;;;;;;;;;;;3.60;88.40;;;;;;5035571;28;19908;-78
2021/01/24 07:38:46;;;;;;;;;;;3.50;88.20;;;;;;5013173;28;19924;-78
2021/01/24 07:41:11;;;;;;;;;;;3.60;88.40;;;;;;5017721;28;19920;-77
2021/01/24 07:43:37;;;;;;;;;;;3.60;88.60;;;;;;5052975;28;19920;-83
2021/01/24 07:46:03;;;;;;;;;;;3.70;88.50;;;;;;5051900;28;19992;-78
2021/01/24 07:48:29;;;;;;;;;;;3.60;88.30;;;;;;5035000;28;19963;-77
2021/01/24 07:50:54;;;;;;;;;;;3.70;88.50;;;;;;5033829;28;19979;-79
2021/01/24 07:53:20;;;;;;;;;;;3.60;88.10;;;;;;5052238;28;19904;-79
2021/01/24 07:55:46;;;;;;;;;;;3.60;87.90;;;;;;5033918;28;19905;-78
2021/01/24 07:58:11;;;;;;;;;;;3.60;88.00;;;;;;5035076;28;19955;-79
2021/01/24 08:00:37;;;;;;;;;;;3.60;88.00;;;;;;5053524;28;19913;-80
2021/01/24 08:03:03;;;;;;;;;;;3.60;87.90;;;;;;5055722;28;20332;-80
2021/01/24 08:05:33;;;;;;;;;;;3.60;87.90;;;;;;5034953;28;19908;-78
2021/01/24 08:07:58;;;;;;;;;;;3.70;87.90;;;;;;5049358;28;19927;-79
2021/01/24 08:10:28;;;;;;;;;;;3.80;87.70;;;;;;5014527;28;19917;-79
2021/01/24 08:12:53;;;;;;;;;;;3.80;87.70;;;;;;5042037;28;20005;-79
2021/01/24 08:15:19;;;;;;;;;;;3.80;87.60;;;;;;5051899;28;19951;-79
2021/01/24 08:17:45;;;;;;;;;;;3.80;87.50;;;;;;5033698;28;20283;-79
2021/01/24 08:20:12;;;;;;;;;;;3.90;87.30;;;;;;5033385;28;19940;-79
2021/01/24 08:22:37;;;;;;;;;;;3.90;87.20;;;;;;5033821;28;19912;-83
2021/01/24 08:25:03;;;;;;;;;;;3.90;87.20;;;;;;5031901;28;20446;-78
2021/01/24 08:27:29;;;;;;;;;;;3.90;87.20;;;;;;5016471;28;19940;-79
2021/01/24 08:29:55;;;;;;;;;;;3.90;87.10;;;;;;5032117;28;19909;-79
2021/01/24 08:32:21;;;;;;;;;;;3.90;86.90;;;;;;5032367;28;20292;-78
2021/01/24 08:34:47;;;;;;;;;;;3.90;86.90;;;;;;5033063;28;19920;-78
2021/01/24 08:37:12;;;;;;;;;;;3.90;86.60;;;;;;5051909;28;19975;-79
2021/01/24 08:39:38;;;;;;;;;;;3.80;86.50;;;;;;5033972;28;19917;-80
2021/01/24 08:42:04;;;;;;;;;;;3.80;86.90;;;;;;5016259;28;20331;-82
2021/01/24 08:44:30;;;;;;;;;;;3.90;87.00;;;;;;5033082;28;19920;-80
2021/01/24 08:47:01;;;;;;;;;;;4.10;87.20;;;;;;5033111;28;19919;-79
2021/01/24 08:49:30;;;;;;;;;;;4.10;86.90;;;;;;5051707;28;19913;-79
2021/01/24 08:52:00;;;;;;;;;;;4.10;86.60;;;;;;5034473;28;19905;-79
2021/01/24 08:54:28;;;;;;;;;;;4.10;86.60;;;;;;5035980;28;20384;-78
2021/01/24 08:57:06;;;;;;;;;;;4.10;86.40;;;;;;5033305;28;19944;-78
2021/01/24 08:59:33;;;;;;;;;;;4.20;86.50;;;;;;5052614;28;19909;-79
2021/01/24 09:01:58;;;;;;;;;;;4.20;86.00;;;;;;5052744;28;19909;-79
2021/01/24 09:04:28;;;;;;;;;;;4.30;86.00;;;;;;5035168;28;19935;-79
2021/01/24 09:06:59;;;;;;;;;;;4.30;86.20;;;;;;5052388;28;20364;-79
2021/01/24 09:09:28;;;;;;;;;;;4.40;85.40;;;;;;5052305;28;19920;-79
2021/01/24 09:11:54;;;;;;;;;;;4.40;85.10;;;;;;5034041;28;19917;-79
2021/01/24 09:14:19;;;;;;;;;;;4.40;85.10;;;;;;5034848;28;19912;-78
2021/01/24 09:16:45;;;;;;;;;;;4.40;85.40;;;;;;5018872;28;19908;-79
2021/01/24 09:19:10;;;;;;;;;;;4.60;85.80;;;;;;5056511;28;19909;-79
2021/01/24 09:21:36;;;;;;;;;;;4.80;85.90;;;;;;5058568;28;20371;-78
2021/01/24 09:24:01;;;;;;;;;;;4.80;85.40;;;;;;5057832;28;19904;-79
2021/01/24 09:26:27;;;;;;;;;;;4.80;84.40;;;;;;5041516;28;19904;-79
2021/01/24 09:28:53;;;;;;;;;;;4.80;84.40;;;;;;5037434;28;20368;-79
2021/01/24 09:31:18;;;;;;;;;;;4.70;84.20;;;;;;5037357;28;20007;-77
2021/01/24 09:33:44;;;;;;;;;;;4.60;84.00;;;;;;5055699;28;20283;-78
2021/01/24 09:36:09;;;;;;;;;;;4.70;84.60;;;;;;5036609;28;19916;-79
2021/01/24 09:38:35;;;;;;;;;;;4.80;85.10;;;;;;5021383;28;19913;-79
2021/01/24 09:41:00;;;;;;;;;;;4.80;84.90;;;;;;5055139;28;19915;-79
2021/01/24 09:43:26;;;;;;;;;;;4.80;84.30;;;;;;5021561;28;19909;-78
2021/01/24 09:45:51;;;;;;;;;;;4.80;84.00;;;;;;5055382;28;20011;-83
2021/01/24 09:48:17;;;;;;;;;;;4.80;83.60;;;;;;5057798;28;19913;-79
2021/01/24 09:50:42;;;;;;;;;;;4.90;84.30;;;;;;5019712;28;19912;-80
2021/01/24 09:53:08;;;;;;;;;;;4.90;83.60;;;;;;5053831;28;19909;-80
2021/01/24 09:55:33;;;;;;;;;;;5.00;83.40;;;;;;5036200;28;19912;-80
2021/01/24 09:57:59;;;;;;;;;;;4.90;82.90;;;;;;5053597;28;20058;-80
2021/01/24 10:00:24;;;;;;;;;;;5.00;83.10;;;;;;5036975;28;19904;-80
2021/01/24 10:02:50;;;;;;;;;;;5.00;82.60;;;;;;5020392;28;20374;-80
2021/01/24 10:05:15;;;;;;;;;;;4.90;82.40;;;;;;5036217;28;19928;-79
2021/01/24 10:07:41;;;;;;;;;;;5.00;82.80;;;;;;5020722;28;19912;-80
2021/01/24 10:10:07;;;;;;;;;;;5.20;83.10;;;;;;5036381;28;20315;-79
2021/01/24 10:12:32;;;;;;;;;;;5.30;83.40;;;;;;5054283;28;19916;-79
2021/01/24 10:14:58;;;;;;;;;;;5.80;83.90;;;;;;5053481;28;20391;-80
2021/01/24 10:17:23;;;;;;;;;;;6.50;82.90;;;;;;5036751;28;20011;-78
2021/01/24 10:19:49;;;;;;;;;;;7.00;81.30;;;;;;5054266;28;19920;-79
2021/01/24 10:22:14;;;;;;;;;;;7.60;79.20;;;;;;5037931;28;20450;-80
2021/01/24 10:24:40;;;;;;;;;;;8.10;77.60;;;;;;5021614;28;19909;-79
2021/01/24 10:27:05;;;;;;;;;;;8.40;75.40;;;;;;5022849;28;19909;-81
2021/01/24 10:29:31;;;;;;;;;;;8.80;74.10;;;;;;5019450;28;19916;-80
2021/01/24 10:31:56;;;;;;;;;;;9.10;72.70;;;;;;5016841;28;19921;-84
2021/01/24 10:34:22;;;;;;;;;;;9.50;71.70;;;;;;5032788;28;19913;-80
2021/01/24 10:36:48;;;;;;;;;;;9.70;70.60;;;;;;5017474;28;19964;-80
2021/01/24 10:39:13;;;;;;;;;;;9.90;69.50;;;;;;5033158;28;19970;-79
2021/01/24 10:41:39;;;;;;;;;;;10.00;68.60;;;;;;5016651;28;20420;-79
2021/01/24 10:44:04;;;;;;;;;;;9.80;68.10;;;;;;5033147;28;19905;-79
2021/01/24 10:46:30;;;;;;;;;;;9.50;67.90;;;;;;5033451;28;20361;-79
2021/01/24 10:48:55;;;;;;;;;;;9.60;69.20;;;;;;5032886;28;19909;-79
2021/01/24 10:51:21;;;;;;;;;;;9.80;68.20;;;;;;5015545;28;19913;-77
2021/01/24 10:53:46;;;;;;;;;;;9.80;67.40;;;;;;5033883;28;20727;-79
2021/01/24 10:56:12;;;;;;;;;;;9.80;67.30;;;;;;5033044;28;19944;-80
2021/01/24 10:58:38;;;;;;;;;;;10.00;67.10;;;;;;5033167;28;19916;-78
2021/01/24 11:01:03;;;;;;;;;;;10.20;66.60;;;;;;5031778;28;19944;-83
2021/01/24 11:03:29;;;;;;;;;;;10.40;66.30;;;;;;5032440;28;19952;-79
2021/01/24 11:05:54;;;;;;;;;;;10.70;66.00;;;;;;5032280;28;19916;-79
2021/01/24 11:08:20;;;;;;;;;;;10.80;64.30;;;;;;5030239;28;19917;-81
2021/01/24 11:10:45;;;;;;;;;;;10.90;64.40;;;;;;5030989;28;19975;-80
2021/01/24 11:13:11;;;;;;;;;;;11.10;64.40;;;;;;5013294;28;19920;-80
2021/01/24 11:15:36;;;;;;;;;;;11.20;63.40;;;;;;5014539;28;19909;-81
2021/01/24 11:18:02;;;;;;;;;;;11.10;63.00;;;;;;5031062;28;19905;-83
2021/01/24 11:20:27;;;;;;;;;;;10.90;62.60;;;;;;5030405;28;19920;-81
2021/01/24 11:22:53;;;;;;;;;;;10.80;63.00;;;;;;5030458;28;19920;-81
2021/01/24 11:25:18;;;;;;;;;;;10.80;63.10;;;;;;5029865;28;19921;-82
2021/01/24 11:27:44;;;;;;;;;;;10.90;63.30;;;;;;5031196;28;19964;-83
2021/01/24 11:30:11;;;;;;;;;;;11.10;63.10;;;;;;5031134;28;20011;-81
2021/01/24 11:32:37;;;;;;;;;;;11.20;62.70;;;;;;5042509;28;20062;-81
2021/01/24 11:35:04;;;;;;;;;;;11.40;62.60;;;;;;5034628;28;19948;-80
2021/01/24 11:37:30;;;;;;;;;;;11.40;62.20;;;;;;5051435;28;19912;-79
2021/01/24 11:39:55;;;;;;;;;;;11.40;61.50;;;;;;5033905;28;19920;-77
2021/01/24 11:42:21;;;;;;;;;;;11.50;61.70;;;;;;5051478;28;19916;-77
2021/01/24 11:44:46;;;;;;;;;;;11.50;61.80;;;;;;5034752;28;20391;-77
2021/01/24 11:47:12;;;;;;;;;;;11.40;61.10;;;;;;5051647;28;19913;-75
2021/01/24 11:49:37;;;;;;;;;;;11.20;61.30;;;;;;5034600;28;20054;-75
2021/01/24 11:52:03;;;;;;;;;;;11.10;61.90;;;;;;5052526;28;20353;-75
2021/01/24 11:54:29;;;;;;;;;;;10.90;62.40;;;;;;5017517;28;19905;-76
2021/01/24 11:56:54;;;;;;;;;;;10.70;62.30;;;;;;5035541;28;19909;-77
2021/01/24 11:59:20;;;;;;;;;;;10.50;63.10;;;;;;5034892;28;19919;-78
2021/01/24 12:01:45;;;;;;;;;;;10.30;63.30;;;;;;5035548;28;19931;-77
2021/01/24 12:04:11;;;;;;;;;;;10.10;64.40;;;;;;5052703;28;19916;-82
2021/01/24 12:06:36;;;;;;;;;;;9.90;64.10;;;;;;5035066;28;19954;-76
2021/01/24 12:09:02;;;;;;;;;;;9.80;65.20;;;;;;5015038;28;19928;-76
2021/01/24 12:11:27;;;;;;;;;;;9.70;65.20;;;;;;5031721;28;19916;-74
2021/01/24 12:13:53;;;;;;;;;;;9.50;64.70;;;;;;5052818;28;19924;-75
2021/01/24 12:16:18;;;;;;;;;;;9.30;64.80;;;;;;5052086;28;19916;-75
2021/01/24 12:18:44;;;;;;;;;;;9.20;66.00;;;;;;5052244;28;19912;-75
2021/01/24 12:21:09;;;;;;;;;;;9.20;65.70;;;;;;5034395;28;19908;-74
2021/01/24 12:23:35;;;;;;;;;;;9.00;66.50;;;;;;5033302;28;19993;-73
2021/01/24 12:26:00;;;;;;;;;;;8.90;66.40;;;;;;5051939;28;19908;-74
2021/01/24 12:28:26;;;;;;;;;;;8.80;67.20;;;;;;5016812;28;20702;-73
2021/01/24 12:30:51;;;;;;;;;;;8.70;66.90;;;;;;5033882;28;19920;-74
2021/01/24 12:33:17;;;;;;;;;;;8.60;67.40;;;;;;5029341;28;19928;-76
2021/01/24 12:35:42;;;;;;;;;;;8.50;67.30;;;;;;5030234;28;19909;-76
2021/01/24 12:38:08;;;;;;;;;;;8.40;68.00;;;;;;5030830;28;20403;-73
2021/01/24 12:40:34;;;;;;;;;;;8.30;68.60;;;;;;5030930;28;20007;-74
2021/01/24 12:43:00;;;;;;;;;;;8.20;68.10;;;;;;5030505;28;19905;-74
2021/01/24 12:45:25;;;;;;;;;;;8.00;68.90;;;;;;5030514;28;20373;-74
2021/01/24 12:47:51;;;;;;;;;;;8.00;68.90;;;;;;5029601;28;19913;-73
2021/01/24 12:50:18;;;;;;;;;;;7.80;68.30;;;;;;5029419;28;19917;-82
2021/01/24 12:52:44;;;;;;;;;;;7.70;69.40;;;;;;5034475;28;19978;-73
2021/01/24 12:55:10;;;;;;;;;;;7.70;68.50;;;;;;5033598;28;19913;-73
2021/01/24 12:57:35;;;;;;;;;;;7.60;68.90;;;;;;5035049;28;20471;-74
2021/01/24 13:00:01;;;;;;;;;;;7.50;69.60;;;;;;5034566;28;19909;-79
2021/01/24 13:02:26;;;;;;;;;;;7.50;69.40;;;;;;5034751;28;19905;-73
2021/01/24 13:04:52;;;;;;;;;;;7.40;70.40;;;;;;5032702;28;19917;-74
2021/01/24 13:07:17;;;;;;;;;;;7.40;70.70;;;;;;5034360;28;20006;-81
2021/01/24 13:09:43;;;;;;;;;;;7.30;71.40;;;;;;5033247;28;19963;-75
2021/01/24 13:12:09;;;;;;;;;;;7.30;71.30;;;;;;5034657;28;19959;-74
2021/01/24 13:14:34;;;;;;;;;;;7.20;71.30;;;;;;5032756;28;20369;-74
2021/01/24 13:17:01;;;;;;;;;;;7.20;71.70;;;;;;5017298;28;19916;-73
2021/01/24 13:19:27;;;;;;;;;;;7.10;72.00;;;;;;5032674;28;20008;-73
2021/01/24 13:21:53;;;;;;;;;;;7.20;73.10;;;;;;5034695;28;19913;-74
2021/01/24 13:24:18;;;;;;;;;;;7.20;73.20;;;;;;5033205;28;20412;-74
2021/01/24 13:26:44;;;;;;;;;;;7.20;73.60;;;;;;5016415;28;19913;-73
2021/01/24 13:29:10;;;;;;;;;;;7.20;74.20;;;;;;5033576;28;20343;-73
2021/01/24 13:31:35;;;;;;;;;;;7.20;74.00;;;;;;5032741;28;19952;-75
2021/01/24 13:34:01;;;;;;;;;;;7.10;74.60;;;;;;5013111;28;19983;-75
2021/01/24 13:36:26;;;;;;;;;;;7.10;74.30;;;;;;5029120;28;20260;-76
2021/01/24 13:38:52;;;;;;;;;;;7.10;73.90;;;;;;5033357;28;19916;-74
2021/01/24 13:41:17;;;;;;;;;;;7.00;73.80;;;;;;5033378;28;19937;-76
2021/01/24 13:43:44;;;;;;;;;;;7.00;74.20;;;;;;5031167;28;19905;-76
2021/01/24 13:46:10;;;;;;;;;;;6.90;74.20;;;;;;5032559;28;19912;-75
2021/01/24 13:48:35;;;;;;;;;;;6.90;75.00;;;;;;5046073;28;19974;-76
2021/01/24 13:51:01;;;;;;;;;;;6.90;74.60;;;;;;5013546;28;19916;-77
2021/01/24 13:53:26;;;;;;;;;;;6.90;74.40;;;;;;5010896;28;19921;-81
2021/01/24 13:55:53;;;;;;;;;;;6.80;74.40;;;;;;5028563;28;20376;-82
2021/01/24 13:58:18;;;;;;;;;;;6.70;74.20;;;;;;5045247;28;19921;-74
2021/01/24 14:00:44;;;;;;;;;;;6.70;74.90;;;;;;5026547;28;19932;-75
2021/01/24 14:03:09;;;;;;;;;;;6.70;75.10;;;;;;5045516;28;19919;-77
2021/01/24 14:05:35;;;;;;;;;;;6.60;75.20;;;;;;5025378;28;20323;-80
2021/01/24 14:08:00;;;;;;;;;;;6.60;74.80;;;;;;5045995;28;19920;-73
2021/01/24 14:10:26;;;;;;;;;;;6.60;75.30;;;;;;5029078;28;19927;-77
2021/01/24 14:12:51;;;;;;;;;;;6.70;75.50;;;;;;5030422;28;19916;-79
2021/01/24 14:15:17;;;;;;;;;;;6.70;75.20;;;;;;5045933;28;19959;-75
2021/01/24 14:17:44;;;;;;;;;;;6.70;74.90;;;;;;5025670;28;20015;-76
2021/01/24 14:20:09;;;;;;;;;;;6.60;74.90;;;;;;5024891;28;19958;-75
2021/01/24 14:22:35;;;;;;;;;;;6.60;74.90;;;;;;5046337;28;19917;-76
2021/01/24 14:25:01;;;;;;;;;;;6.60;74.80;;;;;;5012338;28;20534;-74